Southern Lily — 9VJK4 — position and weather

sailwx.info

Track history (hours):
 
Tides and Currents Weather Stations Pressure Air Temp Water Temp Dewpoint Dewpoint Depression Visibility Wind Speed Wind Dir Waves Ship Positions

Southern Lily

Last reported at 2017-Jan-23 10:33 UTC. Time now 2017-Jan-23 14:57 UTC.
Position S 36°23' E 174°59'.

Length 146 m; draft 7.9 m.

Type: Ship. MMSI: 565050000.

Date/timePositionNaut miles runAvg speedWind from/ knotsBaromVisibWave heightAir tempDewpointWater temp
2017-Jan-23 10:33S 36°23' E 174°59'1211.7
2017-Jan-23 09:31S 36°35' E 174°58'1111.6
2017-Jan-23 08:33S 36°45' E 174°50'7 6.6
2017-Jan-23 07:32S 36°51' E 174°47'0 0.0
2017-Jan-23 06:16S 36°51' E 174°47'0 0.0
2017-Jan-23 05:22S 36°51' E 174°47'0 0.0
2017-Jan-23 04:28S 36°51' E 174°47'0 0.0
2017-Jan-23 02:22S 36°51' E 174°47'0 0.0
2017-Jan-23 01:28S 36°51' E 174°47'0 0.0
2017-Jan-22 23:16S 36°51' E 174°47'0 0.0
2017-Jan-22 22:04S 36°51' E 174°47'0 0.0
2017-Jan-22 21:16S 36°51' E 174°47'0 0.0
2017-Jan-22 19:22S 36°51' E 174°47'0 0.0
2017-Jan-22 16:28S 36°51' E 174°47'0 0.0
2017-Jan-22 14:28S 36°51' E 174°47'0 0.0
2017-Jan-22 13:10S 36°51' E 174°47'0 0.0
2017-Jan-22 12:28S 36°51' E 174°47'0 0.0
2017-Jan-22 11:28S 36°51' E 174°47'0 0.0
2017-Jan-22 09:16S 36°51' E 174°47'0 0.0
2017-Jan-22 07:22S 36°51' E 174°47'0 0.0
2017-Jan-22 06:22S 36°51' E 174°47'0 0.0
2017-Jan-22 05:16S 36°51' E 174°47'0 0.3
2017-Jan-22 04:28S 36°50' E 174°47'0 0.0
2017-Jan-21 03:13S 36°51' E 174°47'0 0.0
2017-Jan-20 15:19S 36°51' E 174°47'0 0.0
2017-Jan-19 20:07S 36°51' E 174°47'1 2.2
2017-Jan-19 19:34S 36°50' E 174°48'7 7.1
2017-Jan-19 18:33S 36°44' E 174°51'6 6.2
2017-Jan-19 17:33S 36°39' E 174°56'6 6.3
2017-Jan-19 16:33S 36°33' E 174°59'7 7.3
2017-Jan-19 15:33S 36°25' E 174°60'7 7.0
2017-Jan-19 14:33S 36°18' E 174°59'1110.3
2017-Jan-19 13:31S 36°08' E 174°57'5012.2
2017-Jan-19 09:23S 35°18' E 175°07'  
Track history (hours):
 
Tides and Currents Weather Stations Pressure Air Temp Water Temp Dewpoint Dewpoint Depression Visibility Wind Speed Wind Dir Waves Ship Positions

Southern Lily

Last reported at 2017-Jan-23 10:33 UTC. Time now 2017-Jan-23 14:57 UTC.
Position S 36°23' E 174°59'.

Length 146 m; draft 7.9 m.

Type: Ship. MMSI: 565050000.

Date/timePositionNaut miles runAvg speedWind from/ knotsBaromVisibWave heightAir tempDewpointWater temp
2017-Jan-23 10:33S 36°23' E 174°59'1211.7
2017-Jan-23 09:31S 36°35' E 174°58'1111.6
2017-Jan-23 08:33S 36°45' E 174°50'7 6.6
2017-Jan-23 07:32S 36°51' E 174°47'0 0.0
2017-Jan-23 06:16S 36°51' E 174°47'0 0.0
2017-Jan-23 05:22S 36°51' E 174°47'0 0.0
2017-Jan-23 04:28S 36°51' E 174°47'0 0.0
2017-Jan-23 02:22S 36°51' E 174°47'0 0.0
2017-Jan-23 01:28S 36°51' E 174°47'0 0.0
2017-Jan-22 23:16S 36°51' E 174°47'0 0.0
2017-Jan-22 22:04S 36°51' E 174°47'0 0.0
2017-Jan-22 21:16S 36°51' E 174°47'0 0.0
2017-Jan-22 19:22S 36°51' E 174°47'0 0.0
2017-Jan-22 16:28S 36°51' E 174°47'0 0.0
2017-Jan-22 14:28S 36°51' E 174°47'0 0.0
2017-Jan-22 13:10S 36°51' E 174°47'0 0.0
2017-Jan-22 12:28S 36°51' E 174°47'0 0.0
2017-Jan-22 11:28S 36°51' E 174°47'0 0.0
2017-Jan-22 09:16S 36°51' E 174°47'0 0.0
2017-Jan-22 07:22S 36°51' E 174°47'0 0.0
2017-Jan-22 06:22S 36°51' E 174°47'0 0.0
2017-Jan-22 05:16S 36°51' E 174°47'0 0.3
2017-Jan-22 04:28S 36°50' E 174°47'0 0.0
2017-Jan-21 03:13S 36°51' E 174°47'0 0.0
2017-Jan-20 15:19S 36°51' E 174°47'0 0.0
2017-Jan-19 20:07S 36°51' E 174°47'1 2.2
2017-Jan-19 19:34S 36°50' E 174°48'7 7.1
2017-Jan-19 18:33S 36°44' E 174°51'6 6.2
2017-Jan-19 17:33S 36°39' E 174°56'6 6.3
2017-Jan-19 16:33S 36°33' E 174°59'7 7.3
2017-Jan-19 15:33S 36°25' E 174°60'7 7.0
2017-Jan-19 14:33S 36°18' E 174°59'1110.3
2017-Jan-19 13:31S 36°08' E 174°57'5012.2
2017-Jan-19 09:23S 35°18' E 175°07'  

Dump ship's entire track history